Time;durP1;ratioP1;P1;durP2;ratioP2;P2;SDS_P1;SDS_P2;PMS_P1;PMS_P2;Temp;Humidity;BMP_temperature;BMP_pressure;BME280_temperature;BME280_humidity;BME280_pressure;Samples;Min_cycle;Max_cycle;Signal;HPM_P1;HPM_P2
2022/12/31 00:01:04;;;;;;;0.25;0.25;;;11.00;99.90;;;;;;5026876;28;20123;-70
2022/12/31 00:03:30;;;;;;;6.05;2.08;;;11.00;99.90;;;;;;5030380;28;20042;-70
2022/12/31 00:05:55;;;;;;;1.10;1.00;;;11.00;99.90;;;;;;5027599;28;20107;-70
2022/12/31 00:08:21;;;;;;;0.30;0.30;;;11.00;99.90;;;;;;5029656;28;20088;-70
2022/12/31 00:10:47;;;;;;;0.30;0.30;;;11.00;99.90;;;;;;5030121;28;20123;-70
2022/12/31 00:13:12;;;;;;;0.13;0.13;;;11.00;99.90;;;;;;5028983;28;20049;-70
2022/12/31 00:15:40;;;;;;;0.68;0.68;;;11.00;99.90;;;;;;5029073;28;20041;-70
2022/12/31 00:18:06;;;;;;;0.15;0.15;;;11.00;99.90;;;;;;5030168;28;20041;-70
2022/12/31 00:20:32;;;;;;;0.10;0.10;;;11.00;99.90;;;;;;5028735;28;20037;-70
2022/12/31 00:22:58;;;;;;;0.88;0.88;;;11.00;99.90;;;;;;5028582;28;20041;-70
2022/12/31 00:25:23;;;;;;;0.10;0.10;;;11.00;99.90;;;;;;5030128;28;20136;-71
2022/12/31 00:27:49;;;;;;;0.47;0.47;;;11.00;99.90;;;;;;5027511;28;20049;-70
2022/12/31 00:30:15;;;;;;;0.32;0.32;;;11.00;99.90;;;;;;5028314;28;20400;-71
2022/12/31 00:32:40;;;;;;;3.50;1.27;;;11.00;99.90;;;;;;5029504;28;20042;-71
2022/12/31 00:35:06;;;;;;;0.80;0.80;;;11.00;99.90;;;;;;5029350;28;20504;-70
2022/12/31 00:37:32;;;;;;;0.30;0.30;;;11.00;99.90;;;;;;5028091;28;20080;-70
2022/12/31 00:39:57;;;;;;;0.10;0.10;;;11.00;99.90;;;;;;5029956;28;20077;-70
2022/12/31 00:42:23;;;;;;;1.98;1.80;;;11.00;99.90;;;;;;5028475;28;20037;-71
2022/12/31 00:44:49;;;;;;;0.15;0.15;;;11.00;99.90;;;;;;5027960;28;20053;-70
2022/12/31 00:47:14;;;;;;;0.17;0.17;;;11.00;99.90;;;;;;5044465;28;20058;-70
2022/12/31 00:49:40;;;;;;;0.10;0.10;;;11.00;99.90;;;;;;5029816;28;20049;-70
2022/12/31 00:52:05;;;;;;;0.03;0.03;;;11.00;99.90;;;;;;5028530;28;20045;-70
2022/12/31 00:54:31;;;;;;;1.75;1.17;;;11.00;99.90;;;;;;5027379;28;20477;-70
2022/12/31 00:56:56;;;;;;;1.35;1.25;;;10.90;99.90;;;;;;5028643;28;20128;-70
2022/12/31 00:59:22;;;;;;;2.10;1.38;;;10.90;99.90;;;;;;5028605;28;20033;-70
2022/12/31 01:01:48;;;;;;;0.73;0.73;;;10.90;99.90;;;;;;5028946;28;20542;-70
2022/12/31 01:04:18;;;;;;;0.10;0.10;;;10.90;99.90;;;;;;5029410;28;20041;-71
2022/12/31 01:06:44;;;;;;;0.40;0.40;;;10.90;99.90;;;;;;5027226;28;20049;-71
2022/12/31 01:09:11;;;;;;;1.85;1.45;;;10.90;99.90;;;;;;5028437;28;20057;-71
2022/12/31 01:11:37;;;;;;;4.75;1.40;;;10.90;99.90;;;;;;5027796;28;20496;-70
2022/12/31 01:14:05;;;;;;;0.82;0.77;;;10.90;99.90;;;;;;5029051;28;20074;-70
2022/12/31 01:16:35;;;;;;;0.35;0.35;;;10.90;99.90;;;;;;5009158;28;20034;-70
2022/12/31 01:19:04;;;;;;;1.05;1.05;;;10.90;99.90;;;;;;5018750;28;20064;-70
2022/12/31 01:21:30;;;;;;;0.10;0.10;;;10.90;99.90;;;;;;5024634;28;20045;-71
2022/12/31 01:23:57;;;;;;;0.35;0.35;;;10.90;99.90;;;;;;5028168;28;20049;-71
2022/12/31 01:26:23;;;;;;;0.90;0.90;;;10.80;99.90;;;;;;5026406;28;20393;-71
2022/12/31 01:28:48;;;;;;;0.10;0.10;;;10.90;99.90;;;;;;5028900;28;20098;-71
2022/12/31 01:31:17;;;;;;;0.10;0.10;;;10.90;99.90;;;;;;5027595;28;20659;-71
2022/12/31 01:33:43;;;;;;;0.30;0.30;;;10.90;99.90;;;;;;5028592;28;20068;-70
2022/12/31 01:36:11;;;;;;;0.20;0.20;;;10.90;99.90;;;;;;5026878;28;20042;-71
2022/12/31 01:38:37;;;;;;;0.22;0.22;;;10.90;99.90;;;;;;5026540;28;20053;-70
2022/12/31 01:41:03;;;;;;;1.23;1.17;;;10.80;99.90;;;;;;5027968;28;20056;-71
2022/12/31 01:43:49;;;;;;;0.10;0.10;;;10.90;99.90;;;;;;5025576;28;20493;-71
2022/12/31 01:46:39;;;;;;;0.30;0.30;;;10.90;99.90;;;;;;5028908;28;20504;-71
2022/12/31 01:49:33;;;;;;;0.35;0.25;;;10.90;99.90;;;;;;5043111;28;20132;-70
2022/12/31 01:52:07;;;;;;;0.98;0.57;;;10.90;99.90;;;;;;5022424;28;20053;-70
2022/12/31 01:54:39;;;;;;;0.15;0.15;;;10.80;99.90;;;;;;5026780;28;20041;-70
2022/12/31 01:57:06;;;;;;;0.20;0.20;;;10.80;99.90;;;;;;5027113;28;20046;-70
2022/12/31 01:59:33;;;;;;;0.20;0.20;;;10.80;99.90;;;;;;5027590;28;20132;-70
2022/12/31 02:01:59;;;;;;;0.00;0.00;;;10.80;99.90;;;;;;5027152;28;20040;-70
2022/12/31 02:04:26;;;;;;;0.10;0.10;;;10.80;99.90;;;;;;5027068;28;20072;-70
2022/12/31 02:07:02;;;;;;;1.88;1.65;;;10.80;99.90;;;;;;5026872;28;20037;-71
2022/12/31 02:09:29;;;;;;;0.10;0.10;;;10.80;99.90;;;;;;5028355;28;20059;-70
2022/12/31 02:11:54;;;;;;;3.35;0.75;;;10.80;99.90;;;;;;5026840;28;20120;-71
2022/12/31 02:14:25;;;;;;;0.00;0.00;;;10.80;99.90;;;;;;5028578;28;20452;-71
2022/12/31 02:17:12;;;;;;;0.88;0.75;;;10.80;99.90;;;;;;5027523;28;20096;-71
2022/12/31 02:20:05;;;;;;;0.52;0.52;;;10.80;99.90;;;;;;5026785;28;20056;-71
2022/12/31 02:23:08;;;;;;;1.00;0.98;;;10.80;99.90;;;;;;5025831;28;20516;-70
2022/12/31 02:26:08;;;;;;;0.10;0.10;;;10.70;99.90;;;;;;5028239;28;20049;-71
2022/12/31 02:28:54;;;;;;;0.20;0.20;;;10.70;99.90;;;;;;5027299;28;20049;-70
2022/12/31 02:31:37;;;;;;;0.10;0.10;;;10.70;99.90;;;;;;5025923;28;20037;-71
2022/12/31 02:34:32;;;;;;;0.30;0.30;;;10.70;99.90;;;;;;5026597;28;20045;-70
2022/12/31 02:37:01;;;;;;;0.10;0.10;;;10.70;99.90;;;;;;5026699;28;20180;-70
2022/12/31 02:39:28;;;;;;;2.17;0.75;;;10.70;99.90;;;;;;5028201;28;20046;-71
2022/12/31 02:41:53;;;;;;;0.68;0.55;;;10.70;99.90;;;;;;5024470;28;20038;-71
2022/12/31 02:44:28;;;;;;;0.00;0.00;;;10.70;99.90;;;;;;5028442;28;20037;-70
2022/12/31 02:47:19;;;;;;;0.10;0.10;;;10.70;99.90;;;;;;5024607;28;20057;-70
2022/12/31 02:50:13;;;;;;;0.32;0.32;;;10.70;99.90;;;;;;5026360;28;20057;-70
2022/12/31 02:52:47;;;;;;;0.10;0.10;;;10.70;99.90;;;;;;5026471;28;20068;-70
2022/12/31 02:55:35;;;;;;;0.10;0.10;;;10.70;99.90;;;;;;5024929;28;20046;-70
2022/12/31 03:06:54;;;;;;;0.70;0.70;;;10.60;99.90;;;;;;5031019;28;20046;-70
2022/12/31 03:09:19;;;;;;;0.28;0.28;;;10.60;99.90;;;;;;5030273;28;20378;-71
2022/12/31 03:14:30;;;;;;;0.05;0.05;;;10.60;99.90;;;;;;5030480;28;20700;-70
2022/12/31 03:16:55;;;;;;;0.10;0.10;;;10.60;99.90;;;;;;5029834;28;20120;-71
2022/12/31 03:27:33;;;;;;;0.30;0.30;;;10.60;99.90;;;;;;5044254;28;20061;-70
2022/12/31 03:29:58;;;;;;;0.20;0.20;;;10.60;99.90;;;;;;5028861;28;20042;-70
2022/12/31 03:32:24;;;;;;;0.10;0.10;;;10.50;99.90;;;;;;5030188;28;20080;-71
2022/12/31 03:34:50;;;;;;;0.13;0.13;;;10.60;99.90;;;;;;5030372;28;20048;-71
2022/12/31 03:37:15;;;;;;;0.10;0.10;;;10.50;99.90;;;;;;5028914;28;20477;-71
2022/12/31 03:39:41;;;;;;;0.20;0.20;;;10.50;99.90;;;;;;5029692;28;20483;-71
2022/12/31 03:42:06;;;;;;;0.10;0.10;;;10.50;99.90;;;;;;5030332;28;20085;-70
2022/12/31 03:44:32;;;;;;;0.10;0.10;;;10.50;99.90;;;;;;5029281;28;20482;-70
2022/12/31 03:46:58;;;;;;;0.10;0.10;;;10.50;99.90;;;;;;5030639;28;20114;-70
2022/12/31 03:49:23;;;;;;;0.77;0.73;;;10.50;99.90;;;;;;5046670;28;20053;-70
2022/12/31 03:51:49;;;;;;;0.10;0.10;;;10.50;99.90;;;;;;5029715;28;20071;-70
2022/12/31 03:54:14;;;;;;;2.10;1.17;;;10.50;99.90;;;;;;5030275;28;20076;-70
2022/12/31 03:56:40;;;;;;;0.98;0.98;;;10.50;99.90;;;;;;5029218;28;20120;-70
2022/12/31 03:59:05;;;;;;;1.58;1.42;;;10.50;99.90;;;;;;5030264;28;20486;-70
2022/12/31 04:01:31;;;;;;;0.10;0.10;;;10.50;99.90;;;;;;5030080;28;20068;-70
2022/12/31 04:03:56;;;;;;;0.30;0.20;;;10.50;99.90;;;;;;5028621;28;20053;-70
2022/12/31 04:06:22;;;;;;;0.10;0.10;;;10.50;99.90;;;;;;5028042;28;20037;-70
2022/12/31 04:08:48;;;;;;;0.55;0.55;;;10.50;99.90;;;;;;5027995;28;20566;-70
2022/12/31 04:11:13;;;;;;;3.63;1.40;;;10.50;99.90;;;;;;5030281;28;20140;-70
2022/12/31 04:13:39;;;;;;;0.00;0.00;;;10.60;99.90;;;;;;5030090;28;20045;-71
2022/12/31 04:16:04;;;;;;;0.10;0.10;;;10.60;99.90;;;;;;5030459;28;20397;-71
2022/12/31 04:18:30;;;;;;;0.10;0.10;;;10.50;99.90;;;;;;5028076;28;20167;-71
2022/12/31 04:21:01;;;;;;;0.20;0.20;;;10.50;99.90;;;;;;5030464;28;20037;-71
2022/12/31 04:23:27;;;;;;;0.20;0.20;;;10.50;99.90;;;;;;5030601;28;20472;-71
2022/12/31 04:25:52;;;;;;;0.90;0.90;;;10.50;99.90;;;;;;5028344;28;20050;-70
2022/12/31 04:28:18;;;;;;;0.47;0.47;;;10.60;99.90;;;;;;5029587;28;20532;-70
2022/12/31 04:30:44;;;;;;;4.50;1.35;;;10.60;99.90;;;;;;5045216;28;20470;-70
2022/12/31 04:33:09;;;;;;;4.38;1.48;;;10.60;99.90;;;;;;5044028;28;20057;-70
2022/12/31 04:35:35;;;;;;;1.25;0.70;;;10.60;99.90;;;;;;5030100;28;20052;-70
2022/12/31 04:38:00;;;;;;;0.10;0.10;;;10.60;99.90;;;;;;5022888;28;20052;-70
2022/12/31 04:40:26;;;;;;;0.10;0.10;;;10.60;99.90;;;;;;5019910;28;20034;-70
2022/12/31 04:42:52;;;;;;;0.00;0.00;;;10.50;99.90;;;;;;5019417;28;20047;-70
2022/12/31 04:45:17;;;;;;;0.00;0.00;;;10.60;99.90;;;;;;5024197;28;20140;-70
2022/12/31 04:47:43;;;;;;;0.10;0.10;;;10.50;99.90;;;;;;5023950;28;20057;-70
2022/12/31 04:50:08;;;;;;;0.10;0.10;;;10.50;99.90;;;;;;5030071;28;20061;-70
2022/12/31 04:52:34;;;;;;;0.40;0.40;;;10.50;99.90;;;;;;5028021;28;22276;-70
2022/12/31 04:54:59;;;;;;;0.00;0.00;;;10.50;99.90;;;;;;5029005;28;20046;-70
2022/12/31 04:57:25;;;;;;;0.30;0.30;;;10.50;99.90;;;;;;5028601;28;20049;-70
2022/12/31 04:59:50;;;;;;;1.75;1.65;;;10.50;99.90;;;;;;5023730;28;20429;-71
2022/12/31 05:02:16;;;;;;;0.22;0.22;;;10.50;99.90;;;;;;5027010;28;20049;-70
2022/12/31 05:04:42;;;;;;;1.88;1.38;;;10.50;99.90;;;;;;5029404;28;20607;-70
2022/12/31 05:07:07;;;;;;;0.10;0.10;;;10.50;99.90;;;;;;5022893;28;20133;-70
2022/12/31 05:09:33;;;;;;;0.00;0.00;;;10.40;99.90;;;;;;5029104;28;20125;-71
2022/12/31 05:11:59;;;;;;;0.10;0.10;;;10.40;99.90;;;;;;5028785;28;20467;-70
2022/12/31 05:14:25;;;;;;;1.75;0.47;;;10.40;99.90;;;;;;5028628;28;20038;-71
2022/12/31 05:16:51;;;;;;;0.10;0.10;;;10.50;99.90;;;;;;5027500;28;20207;-71
2022/12/31 05:19:16;;;;;;;0.10;0.10;;;10.40;99.90;;;;;;5026929;28;20064;-71
2022/12/31 05:21:42;;;;;;;0.10;0.10;;;10.40;99.90;;;;;;5026836;28;20049;-71
2022/12/31 05:24:08;;;;;;;0.17;0.17;;;10.40;99.90;;;;;;5028292;28;20075;-71
2022/12/31 05:26:33;;;;;;;0.00;0.00;;;10.40;99.90;;;;;;5028955;28;20461;-70
2022/12/31 05:28:59;;;;;;;0.10;0.10;;;10.40;99.90;;;;;;5027116;28;20049;-71
2022/12/31 05:31:25;;;;;;;0.43;0.43;;;10.40;99.90;;;;;;5025734;28;20122;-71
2022/12/31 05:33:51;;;;;;;0.32;0.32;;;10.40;99.90;;;;;;5027170;28;20128;-71
2022/12/31 05:36:17;;;;;;;0.20;0.20;;;10.40;99.90;;;;;;5026135;28;20054;-71
2022/12/31 05:38:43;;;;;;;0.10;0.10;;;10.40;99.90;;;;;;5027966;28;20448;-71
2022/12/31 05:41:10;;;;;;;0.10;0.10;;;10.40;99.90;;;;;;5028734;28;20049;-71
2022/12/31 05:43:35;;;;;;;0.10;0.10;;;10.40;99.90;;;;;;5042696;28;20045;-71
2022/12/31 05:46:03;;;;;;;0.10;0.10;;;10.40;99.90;;;;;;5027794;28;20053;-70
2022/12/31 05:48:29;;;;;;;0.10;0.10;;;10.40;99.90;;;;;;5028059;28;20089;-72
2022/12/31 05:50:55;;;;;;;6.03;2.65;;;10.50;99.90;;;;;;5027014;28;20041;-71
2022/12/31 05:53:20;;;;;;;0.57;0.57;;;10.40;99.90;;;;;;5029024;28;20041;-71
2022/12/31 05:55:47;;;;;;;0.10;0.10;;;10.40;99.90;;;;;;5028507;28;20072;-71
2022/12/31 05:58:14;;;;;;;0.10;0.10;;;10.40;99.90;;;;;;5025327;28;20104;-71
2022/12/31 06:00:40;;;;;;;0.32;0.32;;;10.40;99.90;;;;;;5026201;28;20049;-71
2022/12/31 06:03:06;;;;;;;3.63;1.50;;;10.40;99.90;;;;;;5020694;28;20381;-71
2022/12/31 06:05:31;;;;;;;0.55;0.55;;;10.40;99.90;;;;;;5025432;28;20042;-71
2022/12/31 06:07:57;;;;;;;0.10;0.10;;;10.40;99.90;;;;;;5028365;28;20049;-71
2022/12/31 06:10:22;;;;;;;0.08;0.08;;;10.40;99.90;;;;;;5028661;28;20045;-73
2022/12/31 06:12:48;;;;;;;0.10;0.10;;;10.40;99.90;;;;;;5026171;28;20156;-72
2022/12/31 06:15:14;;;;;;;0.25;0.25;;;10.40;99.90;;;;;;5026554;28;20112;-71
2022/12/31 06:17:39;;;;;;;0.88;0.40;;;10.40;99.90;;;;;;5027483;28;20045;-71
2022/12/31 06:20:05;;;;;;;0.10;0.10;;;10.40;99.90;;;;;;5027185;28;20542;-72
2022/12/31 06:22:31;;;;;;;0.10;0.10;;;10.40;99.90;;;;;;5020905;28;20044;-73
2022/12/31 06:24:56;;;;;;;0.40;0.40;;;10.40;99.90;;;;;;5027716;28;20046;-72
2022/12/31 06:27:22;;;;;;;0.47;0.47;;;10.40;99.90;;;;;;5027840;28;20041;-72
2022/12/31 06:29:48;;;;;;;0.10;0.10;;;10.40;99.90;;;;;;5026292;28;20049;-72
2022/12/31 06:32:14;;;;;;;0.15;0.15;;;10.30;99.90;;;;;;5032057;28;20038;-71
2022/12/31 06:34:40;;;;;;;0.15;0.15;;;10.30;99.90;;;;;;5027970;28;20541;-71
2022/12/31 06:37:06;;;;;;;0.03;0.03;;;10.30;99.90;;;;;;5030824;28;20179;-72
2022/12/31 06:39:31;;;;;;;0.10;0.10;;;10.30;99.90;;;;;;5031595;28;20061;-72
2022/12/31 06:41:57;;;;;;;0.30;0.30;;;10.30;99.90;;;;;;5032401;28;20045;-72
2022/12/31 06:44:22;;;;;;;0.10;0.10;;;10.30;99.90;;;;;;5029950;28;20408;-73
2022/12/31 06:46:49;;;;;;;0.10;0.10;;;10.30;99.90;;;;;;5031111;28;20045;-72
2022/12/31 06:49:14;;;;;;;0.10;0.10;;;10.30;99.90;;;;;;5031188;28;20077;-71
2022/12/31 06:51:41;;;;;;;0.10;0.10;;;10.30;99.90;;;;;;5031087;28;20130;-71
2022/12/31 06:54:06;;;;;;;0.32;0.32;;;10.30;99.90;;;;;;5031285;28;20160;-71
2022/12/31 06:56:32;;;;;;;0.10;0.10;;;10.20;99.90;;;;;;5032149;28;20464;-71
2022/12/31 06:58:59;;;;;;;0.10;0.10;;;10.20;99.90;;;;;;5029918;28;20428;-72
2022/12/31 07:01:39;;;;;;;0.25;0.25;;;10.20;99.90;;;;;;5029459;28;20041;-72
2022/12/31 07:04:34;;;;;;;0.10;0.10;;;10.20;99.90;;;;;;5028643;28;20570;-72
2022/12/31 07:07:25;;;;;;;0.10;0.10;;;10.20;99.90;;;;;;5028923;28;20041;-72
2022/12/31 07:10:00;;;;;;;0.52;0.52;;;10.20;99.90;;;;;;5019225;28;20065;-72
2022/12/31 07:13:03;;;;;;;0.40;0.40;;;10.20;99.90;;;;;;5031094;28;20128;-72
2022/12/31 07:15:49;;;;;;;0.20;0.20;;;10.10;99.90;;;;;;5030925;28;20136;-72
2022/12/31 07:18:22;;;;;;;0.00;0.00;;;10.10;99.90;;;;;;5030890;28;20081;-72
2022/12/31 07:20:48;;;;;;;0.10;0.10;;;10.10;99.90;;;;;;5030505;28;20045;-71
2022/12/31 07:23:14;;;;;;;0.10;0.10;;;10.10;99.90;;;;;;5029833;28;20045;-71
2022/12/31 07:25:46;;;;;;;0.10;0.10;;;10.10;99.90;;;;;;5026984;28;20050;-72
2022/12/31 07:28:46;;;;;;;0.00;0.00;;;10.10;99.90;;;;;;5019566;28;20432;-72
2022/12/31 07:31:28;;;;;;;0.10;0.10;;;10.10;99.90;;;;;;5028165;28;20136;-72
2022/12/31 07:34:01;;;;;;;0.10;0.10;;;10.10;99.90;;;;;;5031117;28;20046;-74
2022/12/31 07:36:35;;;;;;;0.98;0.38;;;10.10;99.90;;;;;;5029007;28;20072;-73
2022/12/31 07:39:41;;;;;;;0.13;0.13;;;10.10;99.90;;;;;;5029549;28;20081;-73
2022/12/31 07:42:18;;;;;;;0.10;0.10;;;10.10;99.90;;;;;;5025302;28;20065;-73
2022/12/31 07:45:19;;;;;;;0.17;0.17;;;10.10;99.90;;;;;;5027921;28;20061;-74
2022/12/31 07:47:45;;;;;;;0.15;0.15;;;10.00;99.90;;;;;;5013293;28;20233;-74
2022/12/31 07:50:16;;;;;;;0.10;0.10;;;10.10;99.90;;;;;;5028201;28;20583;-74
2022/12/31 07:52:43;;;;;;;0.00;0.00;;;10.10;99.90;;;;;;5029673;28;20056;-74
2022/12/31 07:55:09;;;;;;;0.30;0.30;;;10.10;99.90;;;;;;5029977;28;20050;-73
2022/12/31 07:57:54;;;;;;;0.10;0.10;;;10.10;99.90;;;;;;5028857;28;20050;-73
2022/12/31 08:00:20;;;;;;;0.00;0.00;;;10.10;99.90;;;;;;5021190;28;20052;-74
2022/12/31 08:03:02;;;;;;;0.10;0.10;;;10.10;99.90;;;;;;5020559;28;20042;-73
2022/12/31 08:05:39;;;;;;;0.10;0.10;;;10.10;99.90;;;;;;5028879;28;20046;-75
2022/12/31 08:08:43;;;;;;;0.00;0.00;;;10.10;99.90;;;;;;5028251;28;20051;-74
2022/12/31 08:11:28;;;;;;;0.10;0.10;;;10.10;99.90;;;;;;4965769;28;20047;-75
2022/12/31 08:13:57;;;;;;;0.00;0.00;;;10.20;99.90;;;;;;4966482;28;20038;-73
2022/12/31 08:16:23;;;;;;;0.40;0.40;;;10.20;99.90;;;;;;5003796;28;20119;-73
2022/12/31 08:18:48;;;;;;;0.17;0.17;;;10.20;99.90;;;;;;5019260;28;20569;-72
2022/12/31 08:21:25;;;;;;;0.10;0.10;;;10.20;99.90;;;;;;5019061;28;20649;-72
2022/12/31 08:24:08;;;;;;;0.10;0.10;;;10.20;99.90;;;;;;5022967;28;20038;-72
2022/12/31 08:26:43;;;;;;;0.10;0.10;;;10.20;99.90;;;;;;5024490;28;20091;-72
2022/12/31 08:29:28;;;;;;;0.17;0.17;;;10.30;99.90;;;;;;5026539;28;20793;-72
2022/12/31 08:32:06;;;;;;;0.10;0.10;;;10.30;99.90;;;;;;5023116;28;20037;-71
2022/12/31 08:34:38;;;;;;;0.10;0.10;;;10.30;99.90;;;;;;5019641;28;20050;-71
2022/12/31 08:37:20;;;;;;;0.10;0.10;;;10.40;99.90;;;;;;5021968;28;20049;-72
2022/12/31 08:40:04;;;;;;;0.10;0.10;;;10.40;99.90;;;;;;5020816;28;20311;-72
2022/12/31 08:42:54;;;;;;;0.10;0.10;;;10.50;99.90;;;;;;5022296;28;20045;-72
2022/12/31 08:45:36;;;;;;;0.10;0.10;;;10.50;99.90;;;;;;5018470;28;20074;-71
2022/12/31 08:48:11;;;;;;;0.10;0.10;;;10.60;99.90;;;;;;5021169;28;20053;-71
2022/12/31 08:50:36;;;;;;;0.57;0.57;;;10.70;99.90;;;;;;5023019;28;20046;-72
2022/12/31 08:53:02;;;;;;;0.00;0.00;;;10.90;99.90;;;;;;5026876;28;20659;-71
2022/12/31 08:55:28;;;;;;;0.30;0.30;;;11.00;99.90;;;;;;5027316;28;20075;-72
2022/12/31 08:58:24;;;;;;;0.20;0.20;;;11.10;99.90;;;;;;5025451;28;20473;-73
2022/12/31 09:00:53;;;;;;;1.33;0.50;;;11.20;99.90;;;;;;5026286;28;20041;-74
2022/12/31 09:03:25;;;;;;;0.03;0.03;;;11.30;99.90;;;;;;5020851;28;20052;-77
2022/12/31 09:06:19;;;;;;;0.35;0.35;;;11.30;99.90;;;;;;5020372;28;20048;-77
2022/12/31 09:09:01;;;;;;;0.10;0.10;;;11.40;99.90;;;;;;5022815;28;20058;-77
2022/12/31 09:11:51;;;;;;;0.00;0.00;;;11.40;99.90;;;;;;5024707;28;20049;-76
2022/12/31 09:14:42;;;;;;;0.55;0.55;;;11.40;99.90;;;;;;5025580;28;20046;-78
2022/12/31 09:17:33;;;;;;;0.10;0.10;;;11.40;99.90;;;;;;4998313;28;20065;-77
2022/12/31 09:19:59;;;;;;;0.30;0.30;;;11.40;99.90;;;;;;5008561;28;20037;-77
2022/12/31 09:22:25;;;;;;;0.13;0.13;;;11.40;99.90;;;;;;5007188;28;20144;-77
2022/12/31 09:24:51;;;;;;;1.02;0.75;;;11.40;99.90;;;;;;5021539;28;20087;-77
2022/12/31 09:27:55;;;;;;;1.85;0.95;;;11.50;99.90;;;;;;5026795;28;20081;-75
2022/12/31 09:30:21;;;;;;;0.40;0.40;;;11.50;99.90;;;;;;4994595;28;20053;-76
2022/12/31 09:33:11;;;;;;;1.02;0.38;;;11.60;99.90;;;;;;5027859;28;20675;-77
2022/12/31 09:35:56;;;;;;;0.10;0.10;;;11.60;99.90;;;;;;5026688;28;20051;-79
2022/12/31 09:38:54;;;;;;;0.10;0.10;;;11.60;99.90;;;;;;5017179;28;20090;-73
2022/12/31 09:41:44;;;;;;;0.20;0.20;;;11.70;99.90;;;;;;5003950;28;20049;-77
2022/12/31 09:44:47;;;;;;;0.00;0.00;;;11.80;99.90;;;;;;5025559;28;20054;-78
2022/12/31 09:47:59;;;;;;;4.38;0.90;;;11.90;99.90;;;;;;5023483;28;20053;-78
2022/12/31 09:51:00;;;;;;;0.57;0.57;;;12.00;99.90;;;;;;4996284;28;20057;-77
2022/12/31 09:53:37;;;;;;;0.40;0.40;;;12.10;99.90;;;;;;5026001;28;20054;-79
2022/12/31 09:56:27;;;;;;;0.10;0.10;;;12.10;99.90;;;;;;5025217;28;20188;-78
2022/12/31 09:59:04;;;;;;;0.57;0.57;;;12.10;99.90;;;;;;5028038;28;20080;-79
2022/12/31 10:02:03;;;;;;;0.00;0.00;;;12.20;99.90;;;;;;5026440;28;20720;-79
2022/12/31 10:04:51;;;;;;;0.08;0.08;;;12.20;99.90;;;;;;5019677;28;20806;-77
2022/12/31 10:07:24;;;;;;;0.10;0.10;;;12.30;99.90;;;;;;5027321;28;20057;-77
2022/12/31 10:10:08;;;;;;;0.40;0.40;;;12.30;99.90;;;;;;5023104;28;20124;-78
2022/12/31 10:12:55;;;;;;;0.03;0.03;;;12.30;99.90;;;;;;5018977;28;20465;-77
2022/12/31 10:15:34;;;;;;;1.98;1.17;;;12.40;99.90;;;;;;5020659;28;20053;-77
2022/12/31 10:18:22;;;;;;;0.20;0.20;;;12.40;99.90;;;;;;5019858;28;20537;-76
2022/12/31 10:21:04;;;;;;;0.10;0.10;;;12.50;99.90;;;;;;5023334;28;20053;-79
2022/12/31 10:24:03;;;;;;;0.10;0.10;;;12.50;99.90;;;;;;5026849;28;20072;-77
2022/12/31 10:26:32;;;;;;;0.10;0.10;;;12.50;99.90;;;;;;5016780;28;20049;-78
2022/12/31 10:29:45;;;;;;;0.10;0.10;;;12.60;99.90;;;;;;5016602;28;20050;-78
2022/12/31 10:32:25;;;;;;;0.10;0.10;;;12.50;99.90;;;;;;4987291;28;20732;-77
2022/12/31 10:35:14;;;;;;;0.28;0.28;;;12.50;99.90;;;;;;5017127;28;20046;-77
2022/12/31 10:37:53;;;;;;;3.70;1.58;;;12.50;99.90;;;;;;5025069;28;20053;-76
2022/12/31 10:40:50;;;;;;;0.25;0.25;;;12.50;99.90;;;;;;5023194;28;20128;-75
2022/12/31 10:43:54;;;;;;;2.40;1.65;;;12.50;99.90;;;;;;5021476;28;20099;-76
2022/12/31 10:46:19;;;;;;;0.20;0.20;;;12.50;99.90;;;;;;5026092;28;20041;-74
2022/12/31 10:49:08;;;;;;;0.10;0.10;;;12.60;99.90;;;;;;5024883;28;20581;-75
2022/12/31 10:52:09;;;;;;;0.10;0.10;;;12.70;99.90;;;;;;5012552;28;20072;-74
2022/12/31 10:54:59;;;;;;;0.20;0.20;;;12.70;99.90;;;;;;5017758;28;20057;-74
2022/12/31 10:57:40;;;;;;;1.75;1.65;;;12.70;99.90;;;;;;5019846;28;20134;-74
2022/12/31 11:00:17;;;;;;;3.10;1.95;;;12.70;99.90;;;;;;5020667;28;20649;-74
2022/12/31 11:02:58;;;;;;;7.85;1.08;;;12.80;99.90;;;;;;5027416;28;20041;-75
2022/12/31 11:06:01;;;;;;;0.20;0.20;;;12.80;99.90;;;;;;5027129;28;20049;-74
2022/12/31 11:08:33;;;;;;;0.30;0.30;;;12.80;99.90;;;;;;5024136;28;20053;-74
2022/12/31 11:11:16;;;;;;;0.10;0.10;;;12.70;99.90;;;;;;5025390;28;20049;-74
2022/12/31 11:14:03;;;;;;;2.13;1.88;;;12.70;99.90;;;;;;5026167;28;20042;-75
2022/12/31 11:16:49;;;;;;;3.72;1.20;;;12.70;99.90;;;;;;5028585;28;20131;-73
2022/12/31 11:19:51;;;;;;;0.15;0.15;;;12.70;99.90;;;;;;5026360;28;20096;-75
2022/12/31 11:22:39;;;;;;;0.28;0.28;;;12.70;99.90;;;;;;5013919;28;20047;-72
2022/12/31 11:25:11;;;;;;;0.65;0.60;;;12.70;99.90;;;;;;5017419;28;20051;-74
2022/12/31 11:27:56;;;;;;;0.10;0.10;;;12.70;99.90;;;;;;5028871;28;20041;-75
2022/12/31 11:30:28;;;;;;;0.25;0.25;;;12.70;99.90;;;;;;5028579;28;20099;-74
2022/12/31 11:33:19;;;;;;;0.57;0.57;;;12.70;99.90;;;;;;5028953;28;20884;-73
2022/12/31 11:36:08;;;;;;;0.13;0.13;;;12.80;99.90;;;;;;5030090;28;20516;-73
2022/12/31 11:38:52;;;;;;;0.10;0.10;;;12.80;99.90;;;;;;5011417;28;20049;-73
2022/12/31 11:41:34;;;;;;;3.30;1.27;;;12.80;99.90;;;;;;5026003;28;20091;-73
2022/12/31 11:44:22;;;;;;;0.28;0.25;;;12.80;99.90;;;;;;5028276;28;20041;-74
2022/12/31 11:47:12;;;;;;;0.10;0.10;;;12.80;99.90;;;;;;5027706;28;20417;-70
2022/12/31 11:49:52;;;;;;;0.10;0.10;;;12.80;99.90;;;;;;5024969;28;20041;-70
2022/12/31 11:52:26;;;;;;;0.10;0.10;;;12.90;99.90;;;;;;5028738;28;20041;-72
2022/12/31 11:55:16;;;;;;;1.02;0.55;;;12.90;99.90;;;;;;5027910;28;20129;-73
2022/12/31 11:57:48;;;;;;;0.10;0.10;;;12.90;99.90;;;;;;5030076;28;20049;-73
2022/12/31 12:00:21;;;;;;;0.20;0.20;;;12.90;99.90;;;;;;5027360;28;20049;-73
2022/12/31 12:02:52;;;;;;;0.43;0.38;;;12.90;99.90;;;;;;5028400;28;20397;-74
2022/12/31 12:05:20;;;;;;;0.10;0.10;;;13.00;99.90;;;;;;5030349;28;20053;-74
2022/12/31 12:07:50;;;;;;;0.10;0.10;;;12.90;99.90;;;;;;5030250;28;20124;-74
2022/12/31 12:10:23;;;;;;;0.75;0.70;;;12.90;99.90;;;;;;5029110;28;20045;-73
2022/12/31 12:12:50;;;;;;;0.10;0.10;;;12.90;99.90;;;;;;5028882;28;20045;-73
2022/12/31 12:15:31;;;;;;;0.10;0.10;;;12.90;99.90;;;;;;5029595;28;20633;-73
2022/12/31 12:18:00;;;;;;;0.10;0.10;;;12.90;99.90;;;;;;5028595;28;20048;-74
2022/12/31 12:20:36;;;;;;;0.10;0.10;;;12.90;99.90;;;;;;5027112;28;20668;-74
2022/12/31 12:23:16;;;;;;;0.13;0.13;;;12.90;99.90;;;;;;5028600;28;20125;-74
2022/12/31 12:25:43;;;;;;;0.10;0.10;;;12.90;99.90;;;;;;5025857;28;20501;-75
2022/12/31 12:28:22;;;;;;;0.50;0.50;;;12.80;99.90;;;;;;5037711;28;20507;-74
2022/12/31 12:31:03;;;;;;;2.05;1.85;;;12.80;99.90;;;;;;5028710;28;20038;-73
2022/12/31 12:33:41;;;;;;;2.72;1.42;;;12.80;99.90;;;;;;5025275;28;20029;-73
2022/12/31 12:36:12;;;;;;;0.10;0.10;;;12.80;99.90;;;;;;5025183;28;20583;-73
2022/12/31 12:38:38;;;;;;;2.08;1.10;;;12.80;99.90;;;;;;5026786;28;20052;-73
2022/12/31 12:41:10;;;;;;;0.00;0.00;;;12.80;99.90;;;;;;5039403;28;20136;-73
2022/12/31 12:43:37;;;;;;;0.15;0.15;;;12.80;99.90;;;;;;5027171;28;20073;-73
2022/12/31 12:46:26;;;;;;;0.50;0.50;;;12.80;99.90;;;;;;5025083;28;20095;-72
2022/12/31 12:48:56;;;;;;;0.20;0.20;;;12.80;99.90;;;;;;5015982;28;20779;-72
2022/12/31 12:51:47;;;;;;;0.10;0.10;;;12.80;99.90;;;;;;5028232;28;20332;-72
2022/12/31 12:54:25;;;;;;;0.30;0.30;;;12.70;99.90;;;;;;5027562;28;20053;-72
2022/12/31 12:57:09;;;;;;;0.22;0.22;;;12.70;99.90;;;;;;5028893;28;20053;-72
2022/12/31 13:00:03;;;;;;;0.75;0.75;;;12.70;99.90;;;;;;5020268;28;20222;-72
2022/12/31 13:02:47;;;;;;;0.40;0.40;;;12.70;99.90;;;;;;5027302;28;20073;-72
2022/12/31 13:05:50;;;;;;;0.77;0.73;;;12.70;99.90;;;;;;5029132;28;20103;-71
2022/12/31 13:08:48;;;;;;;0.03;0.03;;;12.70;99.90;;;;;;5029805;28;20132;-72
2022/12/31 13:11:38;;;;;;;2.83;1.20;;;12.80;99.90;;;;;;5028391;28;20103;-72
2022/12/31 13:14:10;;;;;;;0.10;0.10;;;12.70;99.90;;;;;;5024755;28;20045;-73
2022/12/31 13:16:58;;;;;;;29.88;1.45;;;12.70;99.90;;;;;;5023180;28;20061;-73
2022/12/31 13:19:52;;;;;;;2.22;0.85;;;12.60;99.90;;;;;;5026204;28;20057;-73
2022/12/31 13:22:42;;;;;;;1.45;1.38;;;12.60;99.90;;;;;;5026779;28;20053;-73
2022/12/31 13:25:20;;;;;;;0.17;0.17;;;12.60;99.90;;;;;;5026489;28;20053;-73
2022/12/31 13:27:49;;;;;;;0.10;0.10;;;12.60;99.90;;;;;;5025996;28;20509;-75
2022/12/31 13:30:26;;;;;;;1.38;0.88;;;12.50;99.90;;;;;;5027795;28;20120;-73
2022/12/31 13:33:00;;;;;;;0.65;0.65;;;12.50;99.90;;;;;;5022640;28;20463;-73
2022/12/31 13:35:31;;;;;;;0.20;0.20;;;12.40;99.90;;;;;;5026522;28;20116;-74
2022/12/31 13:38:10;;;;;;;0.10;0.10;;;12.50;99.90;;;;;;5023981;28;20041;-74
2022/12/31 13:40:48;;;;;;;0.90;0.80;;;12.50;99.90;;;;;;5027475;28;20063;-74
2022/12/31 13:43:34;;;;;;;0.10;0.10;;;12.50;99.90;;;;;;5025678;28;20045;-74
2022/12/31 13:46:31;;;;;;;0.10;0.10;;;12.50;99.90;;;;;;5028065;28;20118;-73